Time;durP1;ratioP1;P1;durP2;ratioP2;P2;SDS_P1;SDS_P2;PMS_P1;PMS_P2;Temp;Humidity;BMP_temperature;BMP_pressure;BME280_temperature;BME280_humidity;BME280_pressure;Samples;Min_cycle;Max_cycle;Signal;HPM_P1;HPM_P2
2021/07/25 00:01:37;;;;;;;11.08;8.90;;;;;;;20.89;60.00;100522.02;5037822;58;21193;-85
2021/07/25 00:06:43;;;;;;;15.10;10.32;;;;;;;20.85;60.50;100517.19;5003415;58;21101;-82
2021/07/25 00:11:49;;;;;;;15.72;8.88;;;;;;;20.83;60.68;100520.57;4965840;59;21222;-84
2021/07/25 00:16:55;;;;;;;12.10;9.20;;;;;;;20.91;60.87;100508.40;5019214;58;21202;-83
2021/07/25 00:22:00;;;;;;;12.13;9.20;;;;;;;20.75;60.48;100493.80;4917038;59;21159;-84
2021/07/25 00:27:07;;;;;;;16.25;9.70;;;;;;;20.60;60.75;100488.42;5023878;58;21148;-83
2021/07/25 00:32:13;;;;;;;14.23;10.28;;;;;;;20.48;61.06;100470.55;4916313;59;21205;-82
2021/07/25 00:37:18;;;;;;;16.12;10.23;;;;;;;20.46;61.58;100461.88;4990583;58;21101;-83
2021/07/25 00:42:24;;;;;;;13.18;9.58;;;;;;;20.47;61.61;100454.64;4934253;59;21182;-83
2021/07/25 00:47:30;;;;;;;13.25;10.30;;;;;;;20.49;61.67;100460.64;5020982;58;21170;-84
2021/07/25 00:52:36;;;;;;;13.60;10.30;;;;;;;20.41;61.65;100450.00;4977106;59;21159;-84
2021/07/25 00:57:42;;;;;;;12.50;10.48;;;;;;;20.41;61.94;100448.14;4997717;59;21253;-82
2021/07/25 01:02:55;;;;;;;19.45;9.98;;;;;;;20.42;61.88;100434.20;4936806;59;21108;-85
2021/07/25 01:08:25;;;;;;;14.85;11.53;;;;;;;20.44;62.00;100442.41;5002361;58;21123;-86
2021/07/25 01:13:33;;;;;;;16.00;10.50;;;;;;;20.42;62.02;100435.04;4952534;59;21655;-85
2021/07/25 01:18:49;;;;;;;20.43;11.20;;;;;;;20.31;61.97;100428.76;5005451;59;21259;-85
2021/07/25 01:23:58;;;;;;;16.62;11.18;;;;;;;20.16;62.28;100437.31;5007198;59;21179;-84
2021/07/25 01:29:06;;;;;;;15.90;12.00;;;;;;;20.14;62.79;100432.63;5008625;59;21177;-84
2021/07/25 01:34:13;;;;;;;21.02;11.53;;;;;;;20.10;62.89;100423.26;5014513;58;21183;-85
2021/07/25 01:39:20;;;;;;;19.90;12.03;;;;;;;20.09;63.17;100421.08;4923169;59;21201;-83
2021/07/25 01:44:25;;;;;;;17.92;11.57;;;;;;;20.02;63.21;100410.73;5013707;58;21620;-84
2021/07/25 01:49:31;;;;;;;26.45;13.35;;;;;;;19.92;63.33;100402.95;5079984;57;21526;-83
2021/07/25 01:54:37;;;;;;;18.62;11.33;;;;;;;19.78;63.72;100400.23;5075473;57;21213;-83
2021/07/25 01:59:42;;;;;;;19.92;11.75;;;;;;;19.73;64.06;100408.81;5079574;57;21209;-84
2021/07/25 02:04:48;;;;;;;17.27;11.45;;;;;;;19.76;64.20;100402.26;5075739;57;21197;-84
2021/07/25 02:09:54;;;;;;;20.55;12.00;;;;;;;19.72;64.33;100402.28;5006122;59;21193;-86
2021/07/25 02:14:59;;;;;;;18.17;12.53;;;;;;;19.60;64.67;100402.73;4997311;59;21183;-83
2021/07/25 02:20:06;;;;;;;17.48;12.25;;;;;;;19.48;65.04;100393.41;5082747;57;21529;-85
2021/07/25 02:25:12;;;;;;;16.45;13.10;;;;;;;19.47;65.38;100394.92;5078177;57;21179;-85
2021/07/25 02:30:18;;;;;;;21.87;12.55;;;;;;;19.44;65.46;100401.48;5141251;57;21166;-84
2021/07/25 02:35:24;;;;;;;22.48;13.13;;;;;;;19.38;65.58;100406.23;5140090;57;21099;-84
2021/07/25 02:40:30;;;;;;;21.50;13.58;;;;;;;19.32;65.75;100396.20;5141989;57;21545;-84
2021/07/25 02:45:36;;;;;;;17.50;12.70;;;;;;;19.31;65.97;100402.08;5127219;57;21162;-84
2021/07/25 02:50:42;;;;;;;22.75;12.93;;;;;;;19.31;66.21;100406.10;5123235;57;21809;-84
2021/07/25 02:55:48;;;;;;;24.63;12.73;;;;;;;19.21;66.28;100410.88;4996912;59;21108;-83
2021/07/25 03:00:53;;;;;;;21.20;13.55;;;;;;;19.11;66.54;100414.77;4999468;59;21176;-84
2021/07/25 03:05:59;;;;;;;19.17;13.85;;;;;;;19.06;67.00;100412.64;5000117;59;21208;-83
2021/07/25 03:11:09;;;;;;;19.82;13.70;;;;;;;18.96;67.38;100407.48;5051395;57;21171;-82
2021/07/25 03:16:15;;;;;;;27.55;13.68;;;;;;;18.93;67.58;100399.81;5003089;58;21134;-82
2021/07/25 03:21:21;;;;;;;20.52;12.55;;;;;;;18.92;67.98;100405.34;4910511;59;21165;-82
2021/07/25 03:26:27;;;;;;;21.10;13.03;;;;;;;18.90;68.14;100403.34;4880144;59;21141;-81
2021/07/25 03:31:33;;;;;;;28.83;13.78;;;;;;;18.87;68.49;100397.83;4843485;60;21184;-82
2021/07/25 03:36:39;;;;;;;19.77;13.60;;;;;;;18.84;68.75;100402.19;4843341;59;21527;-84
2021/07/25 03:41:45;;;;;;;24.25;13.72;;;;;;;18.78;68.92;100395.38;4975934;58;22399;-84
2021/07/25 03:46:51;;;;;;;18.23;13.93;;;;;;;18.67;69.04;100381.00;4967020;58;21202;-82
2021/07/25 03:51:58;;;;;;;23.60;14.95;;;;;;;18.60;69.65;100368.33;4994474;58;21143;-82
2021/07/25 03:57:04;;;;;;;24.65;14.50;;;;;;;18.58;70.06;100366.32;5008968;58;22115;-83
2021/07/25 04:02:10;;;;;;;18.70;14.25;;;;;;;18.65;70.27;100377.16;4983319;58;21151;-82
2021/07/25 04:07:16;;;;;;;26.80;13.88;;;;;;;18.79;70.35;100393.03;4939687;59;21165;-83
2021/07/25 04:12:22;;;;;;;23.07;14.00;;;;;;;18.91;70.27;100408.53;4982480;58;21253;-84
2021/07/25 04:17:28;;;;;;;22.25;14.60;;;;;;;18.92;70.04;100419.59;5004450;58;21198;-82
2021/07/25 04:22:39;;;;;;;19.12;13.90;;;;;;;18.90;70.17;100416.74;4992185;58;22079;-82
2021/07/25 04:27:44;;;;;;;31.12;14.98;;;;;;;18.91;70.28;100419.25;4941063;59;21177;-83
2021/07/25 04:32:51;;;;;;;25.88;14.63;;;;;;;18.96;70.50;100407.98;4943177;59;21169;-82
2021/07/25 04:37:56;;;;;;;25.15;14.43;;;;;;;18.97;70.84;100406.47;4939882;59;21662;-82
2021/07/25 04:43:05;;;;;;;18.55;13.58;;;;;;;19.02;71.01;100407.80;4977369;59;21135;-81
2021/07/25 04:48:46;;;;;;;18.60;13.60;;;;;;;19.01;71.29;100404.78;4929750;59;21208;-83
2021/07/25 04:53:55;;;;;;;23.55;14.83;;;;;;;19.07;71.52;100398.23;4977538;59;21501;-82
2021/07/25 04:59:05;;;;;;;24.63;14.45;;;;;;;19.13;71.70;100390.80;4934254;59;21595;-82
2021/07/25 05:04:11;;;;;;;24.57;15.08;;;;;;;19.15;71.97;100394.64;4941764;59;21159;-81
2021/07/25 05:09:16;;;;;;;31.07;15.43;;;;;;;19.21;72.35;100388.58;4959045;58;21185;-82
2021/07/25 05:14:38;;;;;;;24.00;15.43;;;;;;;19.32;72.60;100389.00;5053474;58;21090;-83
2021/07/25 05:20:18;;;;;;;22.15;14.05;;;;;;;19.51;72.70;100388.23;5010834;58;21111;-83
2021/07/25 05:25:18;;;;;;;19.42;13.72;;;;;;;19.73;72.62;100381.15;5010862;58;21173;-82
2021/07/25 05:30:25;;;;;;;16.37;13.20;;;;;;;19.88;72.18;100386.88;5011105;58;21197;-82
2021/07/25 05:35:31;;;;;;;21.25;13.48;;;;;;;20.01;72.00;100383.05;5023049;58;21156;-84
2021/07/25 05:40:36;;;;;;;19.77;14.23;;;;;;;20.18;71.88;100381.03;5007410;58;21197;-82
2021/07/25 05:45:42;;;;;;;19.50;13.72;;;;;;;20.33;71.71;100379.18;5018538;58;21225;-84
2021/07/25 05:50:48;;;;;;;25.68;14.47;;;;;;;20.47;71.37;100386.14;5062937;58;21156;-84
2021/07/25 05:55:54;;;;;;;20.55;12.07;;;;;;;20.61;71.27;100379.91;5035295;58;21731;-84
2021/07/25 06:01:00;;;;;;;20.75;13.30;;;;;;;20.79;70.97;100374.11;4998141;59;21205;-82
2021/07/25 06:06:11;;;;;;;20.45;14.10;;;;;;;20.86;70.60;100375.03;5032607;58;21192;-82
2021/07/25 06:11:23;;;;;;;18.85;14.13;;;;;;;20.98;70.43;100377.04;5009355;58;21240;-82
2021/07/25 06:16:29;;;;;;;22.42;13.80;;;;;;;21.08;70.00;100382.93;4923376;60;21547;-82
2021/07/25 06:21:36;;;;;;;21.80;15.75;;;;;;;21.18;69.87;100379.95;5014337;58;22223;-84
2021/07/25 06:26:44;;;;;;;29.32;15.63;;;;;;;21.27;69.62;100384.20;4926965;60;21197;-82
2021/07/25 06:31:50;;;;;;;24.87;14.00;;;;;;;21.31;69.68;100380.11;4994379;58;21203;-83
2021/07/25 06:36:56;;;;;;;21.02;13.03;;;;;;;21.38;69.90;100377.50;4943166;59;21182;-84
2021/07/25 06:42:02;;;;;;;18.37;13.83;;;;;;;21.49;69.94;100379.66;4964173;59;21174;-83
2021/07/25 06:47:08;;;;;;;21.30;15.40;;;;;;;21.66;69.67;100377.02;4962376;59;21163;-83
2021/07/25 06:52:13;;;;;;;18.48;13.55;;;;;;;21.84;69.63;100360.91;4993849;58;21176;-84
2021/07/25 06:57:19;;;;;;;27.75;15.30;;;;;;;22.05;69.88;100363.56;5072486;58;21234;-82
2021/07/25 07:02:25;;;;;;;22.27;15.80;;;;;;;22.32;69.47;100364.03;4970509;59;21667;-82
2021/07/25 07:07:31;;;;;;;19.95;13.45;;;;;;;22.54;68.59;100363.94;5077881;58;21122;-82
2021/07/25 07:12:37;;;;;;;22.02;13.58;;;;;;;22.80;68.85;100364.07;4966962;58;21715;-82
2021/07/25 07:17:43;;;;;;;18.80;12.95;;;;;;;23.05;67.79;100356.28;5011231;59;21177;-83
2021/07/25 07:23:00;;;;;;;22.40;12.85;;;;;;;23.26;67.65;100349.34;5004570;58;21140;-83
2021/07/25 07:28:06;;;;;;;14.50;11.48;;;;;;;23.55;67.82;100345.97;5002659;58;21101;-82
2021/07/25 07:33:16;;;;;;;12.43;10.58;;;;;;;23.81;66.09;100341.41;4996550;58;21145;-83
2021/07/25 07:38:22;;;;;;;16.62;11.85;;;;;;;24.03;65.93;100333.05;4999176;58;21591;-82
2021/07/25 07:43:27;;;;;;;18.73;10.72;;;;;;;24.23;65.11;100335.22;5053442;57;21163;-82
2021/07/25 07:48:33;;;;;;;20.77;11.25;;;;;;;24.38;64.22;100331.74;5048094;57;21125;-82
2021/07/25 07:53:39;;;;;;;13.62;10.40;;;;;;;24.49;63.61;100334.30;5037753;57;21485;-81
2021/07/25 07:58:46;;;;;;;11.10;10.05;;;;;;;24.56;63.67;100332.41;5051180;57;21181;-85
2021/07/25 08:03:53;;;;;;;15.70;10.85;;;;;;;24.71;61.94;100338.37;5072642;57;21162;-83
2021/07/25 08:08:59;;;;;;;19.50;9.68;;;;;;;24.79;62.05;100335.40;5034560;58;21161;-83
2021/07/25 08:14:05;;;;;;;14.63;11.38;;;;;;;24.97;62.23;100324.41;4978673;59;21181;-85
2021/07/25 08:19:11;;;;;;;11.25;10.10;;;;;;;25.22;61.17;100329.34;4998834;59;21217;-82
2021/07/25 08:24:17;;;;;;;14.73;9.98;;;;;;;25.45;60.83;100316.58;5063848;57;21505;-84
2021/07/25 08:29:23;;;;;;;11.90;8.85;;;;;;;25.65;59.30;100318.63;4941844;59;21176;-84
2021/07/25 08:34:29;;;;;;;14.65;9.98;;;;;;;25.73;59.16;100310.73;4895783;60;21200;-84
2021/07/25 08:39:35;;;;;;;14.60;10.08;;;;;;;25.77;58.06;100310.07;4940593;59;21253;-85
2021/07/25 08:44:48;;;;;;;11.53;9.85;;;;;;;25.80;57.71;100313.70;4933399;59;21173;-81
2021/07/25 08:50:03;;;;;;;13.93;9.45;;;;;;;25.81;58.21;100315.36;4997318;58;21173;-81
2021/07/25 08:55:18;;;;;;;14.63;9.75;;;;;;;25.82;58.35;100306.67;5000751;58;21212;-81
2021/07/25 09:00:25;;;;;;;15.65;9.78;;;;;;;25.84;58.17;100309.98;5002529;58;21165;-81
2021/07/25 09:05:30;;;;;;;18.10;9.45;;;;;;;25.89;58.11;100304.73;4988934;58;21208;-81
2021/07/25 09:10:37;;;;;;;13.50;10.45;;;;;;;26.02;58.03;100318.67;4963638;58;21177;-82
2021/07/25 09:15:43;;;;;;;12.35;10.20;;;;;;;26.17;57.69;100315.06;4963759;58;22108;-83
2021/07/25 09:20:50;;;;;;;17.25;9.83;;;;;;;26.35;57.40;100315.63;4978486;58;21264;-82
2021/07/25 09:25:58;;;;;;;13.65;9.38;;;;;;;26.59;56.07;100313.33;4988480;58;21208;-82
2021/07/25 09:31:16;;;;;;;20.48;10.43;;;;;;;26.82;56.26;100316.69;5019889;58;22077;-86
2021/07/25 09:36:24;;;;;;;11.18;8.35;;;;;;;27.04;55.18;100312.97;4984877;58;21204;-82
2021/07/25 09:41:30;;;;;;;15.98;8.98;;;;;;;27.27;54.17;100321.16;4961636;59;21805;-80
2021/07/25 09:46:46;;;;;;;12.05;8.98;;;;;;;27.45;53.88;100317.00;4977353;59;21194;-84
2021/07/25 09:51:51;;;;;;;13.38;7.97;;;;;;;27.64;53.04;100314.52;4962281;59;21159;-80
2021/07/25 09:57:12;;;;;;;10.32;8.43;;;;;;;27.78;52.12;100318.36;4981565;59;21187;-81
2021/07/25 10:02:35;;;;;;;11.60;9.35;;;;;;;27.77;51.99;100318.89;4968400;58;21160;-81
2021/07/25 10:07:41;;;;;;;;;;;;;;;27.82;51.21;100318.98;4995365;58;21109;-81
2021/07/25 10:12:47;;;;;;;13.05;9.20;;;;;;;27.94;50.54;100314.39;4993062;58;20398;-81
2021/07/25 10:17:54;;;;;;;15.28;8.85;;;;;;;28.10;49.78;100308.77;5143036;57;21170;-81
2021/07/25 10:23:02;;;;;;;15.00;9.13;;;;;;;28.28;50.66;100305.07;4888941;59;21220;-84
2021/07/25 10:28:11;;;;;;;17.27;9.65;;;;;;;28.47;50.58;100303.84;4912348;59;21155;-82
2021/07/25 10:33:17;;;;;;;18.80;9.15;;;;;;;28.63;49.74;100303.61;4889057;58;21202;-81
2021/07/25 10:38:24;;;;;;;16.02;9.28;;;;;;;28.77;50.39;100290.00;4893041;59;21575;-82
2021/07/25 10:43:30;;;;;;;9.58;8.58;;;;;;;28.93;50.35;100291.97;4904010;59;21145;-82
2021/07/25 10:48:36;;;;;;;10.25;8.30;;;;;;;28.96;49.18;100284.67;4876897;60;22124;-81
2021/07/25 10:53:42;;;;;;;14.50;8.83;;;;;;;29.12;48.71;100273.52;4996741;58;21216;-81
2021/07/25 10:58:56;;;;;;;11.97;7.80;;;;;;;29.29;48.59;100287.14;5001043;58;21222;-81
2021/07/25 11:04:02;;;;;;;11.48;8.43;;;;;;;29.42;48.09;100280.56;5044454;57;21190;-79
2021/07/25 11:09:08;;;;;;;16.48;8.55;;;;;;;29.58;46.23;100289.27;4943111;58;22116;-79
2021/07/25 11:14:18;;;;;;;12.73;8.25;;;;;;;29.58;46.47;100290.09;4928214;58;21198;-83
2021/07/25 11:19:29;;;;;;;29.42;10.08;;;;;;;29.53;45.72;100294.63;4911806;58;21655;-82
2021/07/25 11:24:37;;;;;;;20.20;9.43;;;;;;;29.46;46.79;100300.80;4991363;58;21283;-81
2021/07/25 11:29:44;;;;;;;21.25;9.40;;;;;;;29.44;47.38;100295.59;5043218;58;21582;-80
2021/07/25 11:34:54;;;;;;;12.40;9.60;;;;;;;29.44;46.54;100289.31;5034059;58;21103;-82
2021/07/25 11:40:02;;;;;;;13.58;8.88;;;;;;;29.37;46.33;100299.80;5048232;57;21094;-81
2021/07/25 11:45:11;;;;;;;13.35;8.58;;;;;;;29.30;45.35;100306.50;4924538;59;21220;-81
2021/07/25 11:50:37;;;;;;;13.35;8.38;;;;;;;29.17;43.84;100302.73;5031112;57;21122;-85
2021/07/25 11:55:43;;;;;;;12.53;8.83;;;;;;;29.10;45.43;100306.97;4939616;59;21170;-80
2021/07/25 12:00:48;;;;;;;13.18;9.15;;;;;;;29.06;44.92;100308.52;4922379;60;21185;-80
2021/07/25 12:06:12;;;;;;;14.10;10.00;;;;;;;29.04;45.58;100306.05;5035743;58;21579;-79
2021/07/25 12:11:20;;;;;;;14.00;10.23;;;;;;;29.07;45.90;100302.55;5058115;58;21210;-80
2021/07/25 12:16:26;;;;;;;19.80;10.10;;;;;;;29.04;45.97;100303.85;5031402;58;21144;-79
2021/07/25 12:21:34;;;;;;;11.63;9.50;;;;;;;29.09;46.64;100296.31;5023515;58;21181;-80
2021/07/25 12:26:43;;;;;;;13.62;10.98;;;;;;;29.14;47.04;100302.69;5033950;58;21157;-80
2021/07/25 12:31:49;;;;;;;12.63;10.25;;;;;;;29.19;46.66;100294.59;4991326;58;21097;-80
2021/07/25 12:36:55;;;;;;;15.60;9.08;;;;;;;29.26;46.96;100302.08;4963864;58;21154;-80
2021/07/25 12:42:01;;;;;;;10.65;8.95;;;;;;;29.31;46.47;100298.63;5009662;58;21110;-80
2021/07/25 12:47:29;;;;;;;17.40;9.30;;;;;;;29.33;45.08;100304.66;5002363;58;21180;-80
2021/07/25 12:52:35;;;;;;;20.48;15.53;;;;;;;29.30;44.30;100292.34;4832840;60;21210;-79
2021/07/25 12:57:41;;;;;;;23.90;12.58;;;;;;;29.34;45.06;100292.12;4879158;59;21222;-80
2021/07/25 13:08:10;;;;;;;57.25;44.70;;;;;;;29.37;44.05;100294.35;4873353;59;21126;-78
2021/07/25 13:13:15;;;;;;;13.50;10.15;;;;;;;29.34;44.62;100294.02;4971371;58;21757;-81
2021/07/25 13:18:23;;;;;;;10.60;9.23;;;;;;;29.29;44.01;100298.87;4933797;58;21129;-80
2021/07/25 13:23:28;;;;;;;21.55;16.02;;;;;;;29.24;43.74;100302.86;4882858;59;21216;-79
2021/07/25 13:28:37;;;;;;;18.67;13.83;;;;;;;29.22;44.15;100297.36;5005080;59;21179;-79
2021/07/25 13:33:44;;;;;;;9.05;8.05;;;;;;;29.24;44.46;100291.13;5010024;59;21196;-80
2021/07/25 13:38:50;;;;;;;16.07;10.05;;;;;;;29.15;45.70;100296.17;5012395;59;21125;-80
2021/07/25 13:44:00;;;;;;;9.40;8.18;;;;;;;28.96;46.07;100306.45;4999837;58;22091;-79
2021/07/25 13:49:03;;;;;;;11.12;8.73;;;;;;;28.77;46.40;100302.25;5074741;57;21222;-80
2021/07/25 13:54:11;;;;;;;12.33;9.03;;;;;;;28.68;47.06;100307.80;5068049;57;21545;-80
2021/07/25 13:59:16;;;;;;;11.20;8.73;;;;;;;28.61;47.48;100307.94;5048709;57;21165;-80
2021/07/25 14:04:22;;;;;;;17.20;9.70;;;;;;;28.58;47.92;100313.85;5074676;57;21189;-80
2021/07/25 14:09:30;;;;;;;16.87;8.28;;;;;;;28.55;47.61;100321.70;5075418;57;21134;-80
2021/07/25 14:14:36;;;;;;;10.65;9.18;;;;;;;28.38;48.19;100334.39;5016535;58;21155;-80
2021/07/25 14:19:42;;;;;;;13.45;9.05;;;;;;;28.29;48.72;100323.05;5018919;58;21189;-80
2021/07/25 14:24:47;;;;;;;17.42;9.88;;;;;;;28.22;48.70;100329.99;5014828;58;21174;-80
2021/07/25 14:29:53;;;;;;;14.05;9.73;;;;;;;28.17;48.78;100326.30;4924706;59;21201;-79
2021/07/25 14:34:58;;;;;;;12.45;11.25;;;;;;;28.17;49.11;100330.38;5070782;57;21193;-79
2021/07/25 14:40:13;;;;;;;17.35;10.65;;;;;;;28.18;49.65;100330.67;5070541;57;21107;-79
2021/07/25 14:45:19;;;;;;;13.13;9.90;;;;;;;28.22;49.83;100331.88;4999963;59;21202;-79
2021/07/25 14:50:25;;;;;;;17.48;9.95;;;;;;;28.13;50.05;100336.81;5068574;57;21197;-79
2021/07/25 14:55:30;;;;;;;15.78;8.55;;;;;;;28.03;50.55;100331.16;5053505;57;21160;-79
2021/07/25 15:00:36;;;;;;;24.90;9.65;;;;;;;27.96;50.70;100338.59;5072114;57;21264;-79
2021/07/25 15:05:45;;;;;;;12.20;9.83;;;;;;;27.87;50.66;100327.80;5071805;58;21205;-77
2021/07/25 15:10:51;;;;;;;17.32;8.68;;;;;;;27.76;50.60;100340.34;4929118;59;21181;-78
2021/07/25 15:15:57;;;;;;;9.98;7.80;;;;;;;27.72;50.68;100331.52;5017358;58;21826;-79
2021/07/25 15:21:02;;;;;;;14.18;8.90;;;;;;;27.69;50.80;100329.27;5054781;58;21582;-80
2021/07/25 15:26:08;;;;;;;14.38;9.20;;;;;;;27.60;51.19;100327.45;4990943;58;21121;-80
2021/07/25 15:31:22;;;;;;;11.50;8.60;;;;;;;27.60;51.13;100325.55;4930432;58;21114;-79
2021/07/25 15:36:36;;;;;;;10.32;8.98;;;;;;;27.62;51.53;100332.95;5031333;57;22092;-80
2021/07/25 15:41:42;;;;;;;19.45;8.30;;;;;;;27.63;51.24;100325.09;4947849;58;21192;-79
2021/07/25 15:46:51;;;;;;;13.20;8.55;;;;;;;27.70;51.46;100322.24;5030843;57;21171;-79
2021/07/25 15:51:59;;;;;;;12.95;7.30;;;;;;;27.74;51.56;100305.77;4924074;58;21184;-83
2021/07/25 15:57:05;;;;;;;15.90;7.72;;;;;;;27.81;49.28;100308.34;4928460;58;21231;-82
2021/07/25 16:02:11;;;;;;;8.55;5.72;;;;;;;27.84;48.58;100304.63;5056582;57;21162;-82
2021/07/25 16:07:17;;;;;;;8.40;6.40;;;;;;;27.85;47.18;100299.49;4923525;58;21196;-80
2021/07/25 16:12:22;;;;;;;12.47;6.35;;;;;;;27.85;46.84;100298.66;4921718;58;21125;-81
2021/07/25 16:17:28;;;;;;;10.60;6.67;;;;;;;27.83;46.45;100309.77;5077468;57;21504;-82
2021/07/25 16:22:34;;;;;;;8.65;6.62;;;;;;;27.80;46.97;100314.34;4953173;58;21225;-82
2021/07/25 16:27:39;;;;;;;8.18;6.95;;;;;;;27.74;47.00;100313.92;4929068;59;21210;-84
2021/07/25 16:32:45;;;;;;;8.60;7.67;;;;;;;27.71;47.02;100324.43;5015678;59;21168;-81
2021/07/25 16:37:51;;;;;;;14.58;9.90;;;;;;;27.66;46.96;100320.52;4931724;58;21795;-80
2021/07/25 16:42:57;;;;;;;9.40;8.50;;;;;;;27.63;47.00;100326.98;5041747;57;21535;-80
2021/07/25 16:48:03;;;;;;;9.68;7.25;;;;;;;27.57;46.80;100325.19;4939254;58;22103;-79
2021/07/25 16:53:09;;;;;;;8.68;7.03;;;;;;;27.57;47.15;100317.04;5070685;57;21170;-78
2021/07/25 16:58:15;;;;;;;15.72;10.08;;;;;;;27.54;46.70;100312.03;5069339;57;21178;-84
2021/07/25 17:03:20;;;;;;;17.45;7.35;;;;;;;27.49;46.95;100311.94;5069153;57;21170;-84
2021/07/25 17:08:26;;;;;;;12.58;7.58;;;;;;;27.47;47.08;100314.88;5071388;57;21606;-81
2021/07/25 17:13:34;;;;;;;16.07;7.70;;;;;;;27.43;47.00;100311.50;5074531;57;21166;-85
2021/07/25 17:18:40;;;;;;;10.95;6.53;;;;;;;27.34;47.22;100317.82;5073053;58;21095;-85
2021/07/25 17:23:45;;;;;;;7.67;6.28;;;;;;;27.28;46.97;100322.81;4912557;59;21189;-84
2021/07/25 17:28:51;;;;;;;8.63;6.85;;;;;;;27.21;46.98;100324.80;4928917;59;21183;-85
2021/07/25 17:33:57;;;;;;;7.95;6.55;;;;;;;27.16;47.02;100330.11;5056768;57;21150;-85
2021/07/25 17:39:03;;;;;;;13.80;7.90;;;;;;;27.11;46.97;100333.52;5066215;57;21146;-84
2021/07/25 17:44:08;;;;;;;7.25;6.22;;;;;;;27.07;46.95;100328.77;5072059;58;21173;-82
2021/07/25 17:49:15;;;;;;;7.35;6.03;;;;;;;27.00;46.81;100328.05;4998256;59;21205;-84
2021/07/25 17:54:21;;;;;;;7.20;6.45;;;;;;;26.98;47.05;100326.09;5062036;57;21615;-82
2021/07/25 17:59:27;;;;;;;9.08;5.53;;;;;;;26.93;46.96;100326.75;5072558;57;21209;-85
2021/07/25 18:04:34;;;;;;;21.20;6.60;;;;;;;26.87;46.82;100327.69;5071209;57;21170;-81
2021/07/25 18:09:39;;;;;;;10.88;6.25;;;;;;;26.80;46.99;100334.55;5070832;57;21218;-81
2021/07/25 18:14:45;;;;;;;6.95;5.62;;;;;;;26.74;46.95;100338.16;5006587;58;21122;-81
2021/07/25 18:19:55;;;;;;;18.23;6.67;;;;;;;26.68;47.12;100345.88;5074486;57;21557;-82
2021/07/25 18:25:01;;;;;;;9.58;6.47;;;;;;;26.59;46.90;100349.42;4997389;58;21165;-82
2021/07/25 18:30:08;;;;;;;12.43;5.83;;;;;;;26.50;47.23;100348.61;5071990;57;21545;-82
2021/07/25 18:35:14;;;;;;;12.05;6.30;;;;;;;26.43;47.02;100352.74;4940924;58;21272;-81
2021/07/25 18:40:20;;;;;;;11.57;6.50;;;;;;;26.36;47.21;100336.27;5045363;58;21168;-81
2021/07/25 18:45:26;;;;;;;19.27;7.08;;;;;;;26.30;47.53;100335.80;4889747;59;21223;-81
2021/07/25 18:50:31;;;;;;;12.05;6.75;;;;;;;26.20;47.88;100335.78;4964546;58;21175;-81
2021/07/25 18:55:38;;;;;;;9.85;6.12;;;;;;;26.08;48.50;100330.81;4966891;58;21176;-81
2021/07/25 19:00:52;;;;;;;9.13;6.53;;;;;;;25.83;48.99;100322.70;5034558;58;21185;-82
2021/07/25 19:05:58;;;;;;;10.72;6.58;;;;;;;25.64;49.44;100326.97;5045551;57;21528;-81
2021/07/25 19:11:04;;;;;;;12.23;6.60;;;;;;;25.52;49.80;100322.75;4954501;58;21130;-81
2021/07/25 19:16:19;;;;;;;18.37;7.28;;;;;;;25.45;50.10;100325.53;4912379;58;21232;-81
2021/07/25 19:21:25;;;;;;;12.88;6.65;;;;;;;25.44;50.49;100321.69;4997482;58;21161;-81
2021/07/25 19:26:31;;;;;;;15.50;7.95;;;;;;;25.42;50.78;100326.48;4911766;59;21849;-81
2021/07/25 19:31:36;;;;;;;13.45;7.78;;;;;;;25.42;52.15;100326.48;4946342;59;21523;-81
2021/07/25 19:36:42;;;;;;;21.10;8.33;;;;;;;25.41;52.86;100327.53;5006558;58;22356;-81
2021/07/25 19:41:50;;;;;;;24.57;10.28;;;;;;;25.39;53.13;100335.05;4911934;59;21224;-80
2021/07/25 19:46:58;;;;;;;15.38;7.75;;;;;;;25.36;53.20;100333.60;5001897;58;21199;-80
2021/07/25 19:52:06;;;;;;;23.85;8.55;;;;;;;25.28;52.64;100342.53;4890224;59;21239;-81
2021/07/25 19:57:12;;;;;;;37.20;10.15;;;;;;;25.12;52.75;100339.30;5017023;57;21106;-79
2021/07/25 20:02:18;;;;;;;36.83;8.95;;;;;;;24.95;52.81;100342.73;4919108;58;21524;-79
2021/07/25 20:07:23;;;;;;;19.05;8.13;;;;;;;24.94;53.06;100340.55;5035906;57;21183;-79
2021/07/25 20:12:29;;;;;;;20.68;8.08;;;;;;;24.87;53.24;100333.81;4946532;58;22198;-80
2021/07/25 20:17:37;;;;;;;16.57;8.88;;;;;;;24.74;53.34;100331.19;5037040;57;21196;-79
2021/07/25 20:22:44;;;;;;;11.53;8.23;;;;;;;24.60;54.00;100330.08;4941727;58;21184;-80
2021/07/25 20:27:51;;;;;;;24.30;8.53;;;;;;;24.45;54.64;100333.05;4988113;58;21110;-80
2021/07/25 20:32:57;;;;;;;9.93;8.13;;;;;;;24.25;55.33;100336.36;4998324;58;21091;-82
2021/07/25 20:38:05;;;;;;;24.80;8.88;;;;;;;24.08;55.86;100326.50;4995998;58;21210;-80
2021/07/25 20:43:12;;;;;;;14.68;8.15;;;;;;;23.98;55.97;100326.12;5005420;58;21176;-81
2021/07/25 20:48:18;;;;;;;15.38;8.53;;;;;;;24.00;56.17;100319.95;5020984;58;21551;-79
2021/07/25 20:53:28;;;;;;;14.15;8.13;;;;;;;23.95;56.14;100317.08;5002092;58;21190;-79
2021/07/25 20:58:33;;;;;;;11.28;8.80;;;;;;;23.92;56.13;100315.63;4999700;58;21596;-82
2021/07/25 21:03:39;;;;;;;17.85;8.95;;;;;;;24.03;56.21;100323.07;5000678;58;21186;-81
2021/07/25 21:08:47;;;;;;;11.22;8.60;;;;;;;24.10;56.23;100317.66;4950017;59;21158;-81
2021/07/25 21:13:53;;;;;;;19.32;8.80;;;;;;;24.18;55.93;100326.36;4993149;58;21205;-82
2021/07/25 21:19:02;;;;;;;17.67;10.45;;;;;;;24.22;55.77;100336.23;5043952;57;22234;-81
2021/07/25 21:24:07;;;;;;;14.05;9.63;;;;;;;24.20;55.53;100345.90;5002151;57;21149;-81
2021/07/25 21:29:12;;;;;;;15.88;8.88;;;;;;;24.25;55.36;100341.77;4922933;59;21133;-78
2021/07/25 21:34:18;;;;;;;8.45;7.67;;;;;;;24.27;55.08;100344.58;4967511;59;21171;-78
2021/07/25 21:39:24;;;;;;;19.15;9.35;;;;;;;24.22;55.03;100347.56;4995203;58;21529;-80
2021/07/25 21:44:30;;;;;;;11.50;8.68;;;;;;;24.11;55.54;100350.41;5034642;57;21179;-82
2021/07/25 21:49:36;;;;;;;16.37;8.98;;;;;;;24.12;56.61;100345.31;5036787;57;21097;-81
2021/07/25 21:54:41;;;;;;;15.25;9.10;;;;;;;24.04;56.51;100330.14;4893117;59;22191;-81
2021/07/25 21:59:47;;;;;;;15.70;9.08;;;;;;;23.93;56.65;100323.20;4993627;58;21174;-78
2021/07/25 22:04:52;;;;;;;13.38;8.70;;;;;;;23.79;56.63;100318.34;5003868;58;21178;-81
2021/07/25 22:09:59;;;;;;;16.95;9.00;;;;;;;23.66;56.64;100310.27;5000858;58;21157;-80
2021/07/25 22:15:06;;;;;;;16.12;9.25;;;;;;;23.58;56.88;100306.41;4914681;59;21226;-80
2021/07/25 22:20:13;;;;;;;18.42;10.15;;;;;;;23.45;57.12;100298.61;5046674;58;21176;-81
2021/07/25 22:25:19;;;;;;;10.48;9.30;;;;;;;23.40;57.38;100308.35;4947438;59;21152;-80
2021/07/25 22:30:24;;;;;;;14.78;10.08;;;;;;;23.50;57.52;100308.27;5000217;58;21157;-79
2021/07/25 22:35:30;;;;;;;12.03;10.75;;;;;;;23.55;57.29;100304.13;4919884;59;21170;-82
2021/07/25 22:40:39;;;;;;;17.45;9.98;;;;;;;23.50;57.18;100297.47;5020005;58;22040;-78
2021/07/25 22:45:45;;;;;;;16.12;10.48;;;;;;;23.41;57.25;100302.75;4915108;60;21662;-80
2021/07/25 22:50:58;;;;;;;16.80;10.30;;;;;;;23.37;57.52;100307.45;5021431;58;21201;-78
2021/07/25 22:56:05;;;;;;;14.87;10.55;;;;;;;23.26;57.72;100303.47;4964173;59;21195;-80
2021/07/25 23:01:13;;;;;;;15.15;10.40;;;;;;;23.21;58.13;100301.09;5012795;58;21579;-79
2021/07/25 23:06:20;;;;;;;15.30;11.83;;;;;;;23.13;58.23;100294.86;4953767;59;21205;-79
2021/07/25 23:11:26;;;;;;;16.73;12.13;;;;;;;22.99;58.49;100292.34;5009639;58;21180;-81
2021/07/25 23:16:35;;;;;;;24.90;11.63;;;;;;;22.92;58.89;100289.62;5013563;58;21202;-81
2021/07/25 23:21:40;;;;;;;20.27;9.43;;;;;;;22.93;58.99;100300.73;5085321;58;21568;-81
2021/07/25 23:26:46;;;;;;;15.68;11.78;;;;;;;22.86;59.29;100297.20;5007542;59;21170;-81
2021/07/25 23:31:51;;;;;;;19.00;11.63;;;;;;;22.82;59.48;100288.37;5013198;58;21184;-80